Aviation Digital Data Service (ADDS)

Output produced by METARs form (0023 UTC 24 May 2022)
found at http://www.aviationweather.gov/metar/data/
 
TAF SMJP 232200Z 2400/2424 09005KT 9999 FEW010 SCT025 TX32/2416Z TN23/2407Z 
     TEMPO 2408/2412 2000 BR BKN002 
     TEMPO 2417/2420 TS FEW015CB SCT020